sensor_id;sensor_type;location;lat;lon;timestamp;P1;durP1;ratioP1;P2;durP2;ratioP2
63370;SDS011;49504;48.336;14.472;2023-04-01T04:43:11;3.53;;;1.50;;
63370;SDS011;49504;48.336;14.472;2023-04-01T04:46:36;2.85;;;1.20;;
63370;SDS011;49504;48.336;14.472;2023-04-01T04:50:06;3.63;;;1.67;;
63370;SDS011;49504;48.336;14.472;2023-04-01T04:53:30;3.20;;;1.40;;
63370;SDS011;49504;48.336;14.472;2023-04-01T04:56:52;3.58;;;1.70;;
63370;SDS011;49504;48.336;14.472;2023-04-01T05:00:17;3.20;;;1.55;;
63370;SDS011;49504;48.336;14.472;2023-04-01T05:03:54;3.00;;;1.40;;
63370;SDS011;49504;48.336;14.472;2023-04-01T05:07:15;3.50;;;1.65;;
63370;SDS011;49504;48.336;14.472;2023-04-01T05:10:37;2.40;;;1.20;;
63370;SDS011;49504;48.336;14.472;2023-04-01T05:13:58;2.78;;;1.27;;
63370;SDS011;49504;48.336;14.472;2023-04-01T05:17:22;3.85;;;1.60;;
63370;SDS011;49504;48.336;14.472;2023-04-01T05:20:47;5.10;;;1.85;;
63370;SDS011;49504;48.336;14.472;2023-04-01T05:24:13;5.03;;;1.77;;
63370;SDS011;49504;48.336;14.472;2023-04-01T05:27:39;5.60;;;1.92;;
63370;SDS011;49504;48.336;14.472;2023-04-01T05:31:02;3.65;;;1.50;;
63370;SDS011;49504;48.336;14.472;2023-04-01T05:34:34;4.28;;;1.65;;
63370;SDS011;49504;48.336;14.472;2023-04-01T05:37:56;4.35;;;1.50;;
63370;SDS011;49504;48.336;14.472;2023-04-01T05:41:17;4.57;;;1.80;;
63370;SDS011;49504;48.336;14.472;2023-04-01T05:44:40;4.07;;;1.67;;
63370;SDS011;49504;48.336;14.472;2023-04-01T05:48:01;3.38;;;1.27;;
63370;SDS011;49504;48.336;14.472;2023-04-01T05:51:28;3.67;;;1.40;;
63370;SDS011;49504;48.336;14.472;2023-04-01T05:54:52;3.10;;;1.60;;
63370;SDS011;49504;48.336;14.472;2023-04-01T05:58:14;5.35;;;1.30;;
63370;SDS011;49504;48.336;14.472;2023-04-01T06:01:39;3.83;;;1.63;;
63370;SDS011;49504;48.336;14.472;2023-04-01T06:05:02;3.90;;;1.70;;
63370;SDS011;49504;48.336;14.472;2023-04-01T06:08:35;3.45;;;1.38;;
63370;SDS011;49504;48.336;14.472;2023-04-01T06:16:07;3.10;;;1.45;;
63370;SDS011;49504;48.336;14.472;2023-04-01T06:19:39;2.70;;;1.05;;
63370;SDS011;49504;48.336;14.472;2023-04-01T06:23:16;3.80;;;1.35;;
63370;SDS011;49504;48.336;14.472;2023-04-01T06:26:51;3.25;;;1.30;;
63370;SDS011;49504;48.336;14.472;2023-04-01T06:30:38;4.30;;;1.20;;
63370;SDS011;49504;48.336;14.472;2023-04-01T06:34:12;4.97;;;1.10;;
63370;SDS011;49504;48.336;14.472;2023-04-01T06:41:57;4.18;;;1.10;;
63370;SDS011;49504;48.336;14.472;2023-04-01T06:45:48;2.20;;;0.90;;
63370;SDS011;49504;48.336;14.472;2023-04-01T07:50:31;2.72;;;1.00;;
63370;SDS011;49504;48.336;14.472;2023-04-01T07:54:00;2.45;;;0.60;;
63370;SDS011;49504;48.336;14.472;2023-04-01T07:57:30;1.95;;;0.60;;
63370;SDS011;49504;48.336;14.472;2023-04-01T08:04:05;3.50;;;1.10;;
63370;SDS011;49504;48.336;14.472;2023-04-01T08:08:00;4.05;;;0.82;;
63370;SDS011;49504;48.336;14.472;2023-04-01T08:14:45;2.10;;;0.80;;
63370;SDS011;49504;48.336;14.472;2023-04-01T08:18:44;2.53;;;0.90;;
63370;SDS011;49504;48.336;14.472;2023-04-01T08:22:20;3.30;;;1.23;;
63370;SDS011;49504;48.336;14.472;2023-04-01T08:25:49;2.95;;;1.10;;
63370;SDS011;49504;48.336;14.472;2023-04-01T08:29:16;2.47;;;0.90;;
63370;SDS011;49504;48.336;14.472;2023-04-01T08:32:44;2.45;;;0.75;;
63370;SDS011;49504;48.336;14.472;2023-04-01T08:36:11;3.08;;;0.82;;
63370;SDS011;49504;48.336;14.472;2023-04-01T08:39:40;2.38;;;0.90;;
63370;SDS011;49504;48.336;14.472;2023-04-01T08:44:26;2.65;;;0.98;;
63370;SDS011;49504;48.336;14.472;2023-04-01T08:48:13;2.45;;;0.85;;
63370;SDS011;49504;48.336;14.472;2023-04-01T08:55:59;2.42;;;0.82;;
63370;SDS011;49504;48.336;14.472;2023-04-01T08:59:42;2.65;;;1.35;;
63370;SDS011;49504;48.336;14.472;2023-04-01T09:03:41;2.15;;;1.15;;
63370;SDS011;49504;48.336;14.472;2023-04-01T09:07:22;1.90;;;0.60;;
63370;SDS011;49504;48.336;14.472;2023-04-01T09:11:22;1.70;;;0.60;;
63370;SDS011;49504;48.336;14.472;2023-04-01T09:15:12;1.77;;;0.52;;
63370;SDS011;49504;48.336;14.472;2023-04-01T09:19:16;1.75;;;0.60;;
63370;SDS011;49504;48.336;14.472;2023-04-01T09:23:00;1.75;;;0.60;;
63370;SDS011;49504;48.336;14.472;2023-04-01T09:27:11;2.33;;;0.70;;
63370;SDS011;49504;48.336;14.472;2023-04-01T09:31:00;3.60;;;1.13;;
63370;SDS011;49504;48.336;14.472;2023-04-01T09:35:03;1.60;;;0.52;;
63370;SDS011;49504;48.336;14.472;2023-04-01T09:38:47;1.95;;;0.60;;
63370;SDS011;49504;48.336;14.472;2023-04-01T09:46:20;4.20;;;0.98;;
63370;SDS011;49504;48.336;14.472;2023-04-01T09:50:01;1.77;;;0.60;;
63370;SDS011;49504;48.336;14.472;2023-04-01T09:53:57;2.53;;;0.85;;
63370;SDS011;49504;48.336;14.472;2023-04-01T09:57:39;2.60;;;0.90;;
63370;SDS011;49504;48.336;14.472;2023-04-01T10:15:10;56.92;;;42.60;;
63370;SDS011;49504;48.336;14.472;2023-04-01T10:24:00;432.50;;;216.23;;
63370;SDS011;49504;48.336;14.472;2023-04-01T10:28:16;965.50;;;586.17;;
63370;SDS011;49504;48.336;14.472;2023-04-01T10:36:54;1209.78;;;751.30;;
63370;SDS011;49504;48.336;14.472;2023-04-01T10:48:56;241.88;;;134.77;;
63370;SDS011;49504;48.336;14.472;2023-04-01T10:53:02;191.25;;;106.75;;
63370;SDS011;49504;48.336;14.472;2023-04-01T10:57:46;490.90;;;357.05;;
63370;SDS011;49504;48.336;14.472;2023-04-01T11:02:01;863.10;;;668.38;;
63370;SDS011;49504;48.336;14.472;2023-04-01T11:10:50;397.05;;;280.75;;
63370;SDS011;49504;48.336;14.472;2023-04-01T11:15:02;349.17;;;230.10;;
63370;SDS011;49504;48.336;14.472;2023-04-01T11:23:33;337.83;;;221.50;;
63370;SDS011;49504;48.336;14.472;2023-04-01T11:27:17;369.38;;;249.65;;
63370;SDS011;49504;48.336;14.472;2023-04-01T11:30:54;365.10;;;248.02;;
63370;SDS011;49504;48.336;14.472;2023-04-01T11:42:37;365.58;;;252.93;;
63370;SDS011;49504;48.336;14.472;2023-04-01T11:46:42;379.95;;;260.80;;
63370;SDS011;49504;48.336;14.472;2023-04-01T11:50:43;422.58;;;309.17;;
63370;SDS011;49504;48.336;14.472;2023-04-01T11:54:26;363.55;;;257.92;;
63370;SDS011;49504;48.336;14.472;2023-04-01T11:58:06;376.80;;;266.73;;
63370;SDS011;49504;48.336;14.472;2023-04-01T12:01:59;409.77;;;294.50;;
63370;SDS011;49504;48.336;14.472;2023-04-01T12:05:36;413.77;;;303.33;;
63370;SDS011;49504;48.336;14.472;2023-04-01T12:09:07;394.88;;;286.38;;
63370;SDS011;49504;48.336;14.472;2023-04-01T12:12:38;397.80;;;288.45;;
63370;SDS011;49504;48.336;14.472;2023-04-01T12:16:12;391.23;;;279.90;;
63370;SDS011;49504;48.336;14.472;2023-04-01T12:19:58;371.55;;;271.27;;
63370;SDS011;49504;48.336;14.472;2023-04-01T12:23:48;363.00;;;261.13;;
63370;SDS011;49504;48.336;14.472;2023-04-01T12:27:43;365.95;;;257.48;;
63370;SDS011;49504;48.336;14.472;2023-04-01T12:31:28;339.17;;;239.30;;
63370;SDS011;49504;48.336;14.472;2023-04-01T12:35:10;324.88;;;232.13;;
63370;SDS011;49504;48.336;14.472;2023-04-01T12:38:41;308.00;;;218.20;;
63370;SDS011;49504;48.336;14.472;2023-04-01T12:42:14;289.35;;;212.35;;
63370;SDS011;49504;48.336;14.472;2023-04-01T12:45:47;282.92;;;207.20;;
63370;SDS011;49504;48.336;14.472;2023-04-01T12:53:03;275.48;;;195.30;;
63370;SDS011;49504;48.336;14.472;2023-04-01T12:56:44;263.80;;;192.02;;
63370;SDS011;49504;48.336;14.472;2023-04-01T13:04:35;249.68;;;174.40;;
63370;SDS011;49504;48.336;14.472;2023-04-01T13:09:16;237.10;;;165.65;;
63370;SDS011;49504;48.336;14.472;2023-04-01T13:13:00;241.25;;;167.00;;
63370;SDS011;49504;48.336;14.472;2023-04-01T13:16:55;222.23;;;161.73;;
63370;SDS011;49504;48.336;14.472;2023-04-01T13:22:15;218.15;;;152.48;;
63370;SDS011;49504;48.336;14.472;2023-04-01T13:25:43;215.73;;;148.95;;
63370;SDS011;49504;48.336;14.472;2023-04-01T15:28:16;88.82;;;67.30;;
63370;SDS011;49504;48.336;14.472;2023-04-01T15:31:48;80.93;;;63.63;;
63370;SDS011;49504;48.336;14.472;2023-04-01T15:35:18;82.07;;;62.78;;
63370;SDS011;49504;48.336;14.472;2023-04-01T15:46:18;76.55;;;58.85;;
63370;SDS011;49504;48.336;14.472;2023-04-01T16:00:53;74.18;;;55.22;;
63370;SDS011;49504;48.336;14.472;2023-04-01T16:08:13;66.85;;;51.15;;
63370;SDS011;49504;48.336;14.472;2023-04-01T16:11:55;64.53;;;49.97;;
63370;SDS011;49504;48.336;14.472;2023-04-01T16:15:26;66.75;;;50.83;;
63370;SDS011;49504;48.336;14.472;2023-04-01T16:19:07;62.00;;;47.13;;
63370;SDS011;49504;48.336;14.472;2023-04-01T16:22:49;58.97;;;46.22;;
63370;SDS011;49504;48.336;14.472;2023-04-01T16:26:19;62.25;;;46.80;;
63370;SDS011;49504;48.336;14.472;2023-04-01T16:29:47;62.20;;;46.95;;
63370;SDS011;49504;48.336;14.472;2023-04-01T16:33:15;61.95;;;47.95;;
63370;SDS011;49504;48.336;14.472;2023-04-01T16:36:44;59.35;;;46.75;;
63370;SDS011;49504;48.336;14.472;2023-04-01T16:40:15;62.53;;;47.65;;
63370;SDS011;49504;48.336;14.472;2023-04-01T16:43:45;57.80;;;45.42;;
63370;SDS011;49504;48.336;14.472;2023-04-01T16:50:41;57.08;;;42.78;;
63370;SDS011;49504;48.336;14.472;2023-04-01T16:54:14;48.65;;;39.78;;
63370;SDS011;49504;48.336;14.472;2023-04-01T16:57:46;51.35;;;41.80;;
63370;SDS011;49504;48.336;14.472;2023-04-01T17:01:12;46.85;;;39.03;;
63370;SDS011;49504;48.336;14.472;2023-04-01T17:04:38;47.97;;;37.38;;
63370;SDS011;49504;48.336;14.472;2023-04-01T17:08:07;48.63;;;37.67;;
63370;SDS011;49504;48.336;14.472;2023-04-01T17:11:39;45.15;;;34.63;;
63370;SDS011;49504;48.336;14.472;2023-04-01T17:15:07;39.72;;;31.63;;
63370;SDS011;49504;48.336;14.472;2023-04-01T17:18:42;40.70;;;32.65;;
63370;SDS011;49504;48.336;14.472;2023-04-01T17:22:18;42.55;;;34.60;;
63370;SDS011;49504;48.336;14.472;2023-04-01T17:25:53;40.43;;;33.73;;
63370;SDS011;49504;48.336;14.472;2023-04-01T17:29:32;42.70;;;33.83;;
63370;SDS011;49504;48.336;14.472;2023-04-01T17:37:15;37.00;;;29.10;;
63370;SDS011;49504;48.336;14.472;2023-04-01T17:40:50;1599.22;;;819.92;;
63370;SDS011;49504;48.336;14.472;2023-04-01T17:44:31;691.10;;;486.55;;
63370;SDS011;49504;48.336;14.472;2023-04-01T17:48:08;491.40;;;338.45;;
63370;SDS011;49504;48.336;14.472;2023-04-01T17:51:46;362.02;;;229.35;;
63370;SDS011;49504;48.336;14.472;2023-04-01T17:55:25;322.30;;;198.88;;
63370;SDS011;49504;48.336;14.472;2023-04-01T17:59:11;247.45;;;150.80;;
63370;SDS011;49504;48.336;14.472;2023-04-01T18:02:46;194.52;;;121.22;;
63370;SDS011;49504;48.336;14.472;2023-04-01T18:06:20;167.18;;;106.90;;
63370;SDS011;49504;48.336;14.472;2023-04-01T18:09:53;173.27;;;109.53;;
63370;SDS011;49504;48.336;14.472;2023-04-01T18:13:40;172.68;;;109.75;;
63370;SDS011;49504;48.336;14.472;2023-04-01T18:17:42;171.75;;;105.68;;
63370;SDS011;49504;48.336;14.472;2023-04-01T18:21:19;164.38;;;102.85;;
63370;SDS011;49504;48.336;14.472;2023-04-01T18:24:54;166.95;;;101.30;;
63370;SDS011;49504;48.336;14.472;2023-04-01T18:28:22;154.90;;;99.18;;
63370;SDS011;49504;48.336;14.472;2023-04-01T18:31:55;161.07;;;104.28;;
63370;SDS011;49504;48.336;14.472;2023-04-01T18:35:45;147.82;;;91.03;;
63370;SDS011;49504;48.336;14.472;2023-04-01T18:39:12;137.35;;;87.72;;
63370;SDS011;49504;48.336;14.472;2023-04-01T18:42:40;133.38;;;86.88;;
63370;SDS011;49504;48.336;14.472;2023-04-01T18:46:12;127.47;;;83.85;;
63370;SDS011;49504;48.336;14.472;2023-04-01T18:49:43;114.72;;;78.35;;
63370;SDS011;49504;48.336;14.472;2023-04-01T18:53:15;124.00;;;77.82;;
63370;SDS011;49504;48.336;14.472;2023-04-01T18:56:44;115.57;;;74.82;;
63370;SDS011;49504;48.336;14.472;2023-04-01T19:00:11;123.90;;;78.22;;
63370;SDS011;49504;48.336;14.472;2023-04-01T19:03:41;116.75;;;75.55;;
63370;SDS011;49504;48.336;14.472;2023-04-01T19:07:31;110.13;;;71.53;;
63370;SDS011;49504;48.336;14.472;2023-04-01T19:11:08;106.30;;;70.13;;
63370;SDS011;49504;48.336;14.472;2023-04-01T19:14:39;103.68;;;70.13;;
63370;SDS011;49504;48.336;14.472;2023-04-01T19:18:22;100.85;;;65.40;;
63370;SDS011;49504;48.336;14.472;2023-04-01T19:22:03;101.90;;;66.65;;
63370;SDS011;49504;48.336;14.472;2023-04-01T19:25:41;101.40;;;65.30;;
63370;SDS011;49504;48.336;14.472;2023-04-01T19:29:16;91.30;;;60.65;;
63370;SDS011;49504;48.336;14.472;2023-04-01T19:32:52;91.78;;;61.83;;
63370;SDS011;49504;48.336;14.472;2023-04-01T19:36:23;86.40;;;57.78;;
63370;SDS011;49504;48.336;14.472;2023-04-01T19:39:55;85.88;;;56.65;;
63370;SDS011;49504;48.336;14.472;2023-04-01T19:47:24;81.97;;;53.83;;
63370;SDS011;49504;48.336;14.472;2023-04-01T19:51:03;80.28;;;53.10;;
63370;SDS011;49504;48.336;14.472;2023-04-01T19:54:32;81.82;;;54.28;;
63370;SDS011;49504;48.336;14.472;2023-04-01T19:58:05;75.85;;;50.05;;
63370;SDS011;49504;48.336;14.472;2023-04-01T20:01:41;73.60;;;50.25;;
63370;SDS011;49504;48.336;14.472;2023-04-01T20:05:28;70.15;;;48.30;;
63370;SDS011;49504;48.336;14.472;2023-04-01T20:09:08;66.03;;;46.22;;
63370;SDS011;49504;48.336;14.472;2023-04-01T20:12:52;64.38;;;45.05;;
63370;SDS011;49504;48.336;14.472;2023-04-01T20:16:21;66.43;;;44.67;;
63370;SDS011;49504;48.336;14.472;2023-04-01T20:19:43;71.95;;;47.22;;
63370;SDS011;49504;48.336;14.472;2023-04-01T20:23:24;59.72;;;42.40;;
63370;SDS011;49504;48.336;14.472;2023-04-01T20:26:59;56.05;;;39.15;;
63370;SDS011;49504;48.336;14.472;2023-04-01T20:30:33;54.65;;;37.53;;
63370;SDS011;49504;48.336;14.472;2023-04-01T20:42:39;50.78;;;36.00;;
63370;SDS011;49504;48.336;14.472;2023-04-01T20:46:28;49.03;;;36.55;;
63370;SDS011;49504;48.336;14.472;2023-04-01T20:50:00;49.15;;;34.58;;
63370;SDS011;49504;48.336;14.472;2023-04-01T20:53:35;51.05;;;36.83;;
63370;SDS011;49504;48.336;14.472;2023-04-01T20:57:06;49.30;;;34.35;;
63370;SDS011;49504;48.336;14.472;2023-04-01T21:00:35;45.85;;;34.10;;
63370;SDS011;49504;48.336;14.472;2023-04-01T21:07:50;43.53;;;33.30;;
63370;SDS011;49504;48.336;14.472;2023-04-01T21:11:18;47.38;;;32.13;;
63370;SDS011;49504;48.336;14.472;2023-04-01T21:14:54;44.83;;;32.72;;
63370;SDS011;49504;48.336;14.472;2023-04-01T21:18:32;45.70;;;30.65;;
63370;SDS011;49504;48.336;14.472;2023-04-01T21:22:33;43.00;;;30.42;;
63370;SDS011;49504;48.336;14.472;2023-04-01T21:29:53;38.55;;;27.55;;
63370;SDS011;49504;48.336;14.472;2023-04-01T21:33:40;37.95;;;27.25;;
63370;SDS011;49504;48.336;14.472;2023-04-01T21:37:21;37.97;;;27.45;;
63370;SDS011;49504;48.336;14.472;2023-04-01T21:41:08;36.58;;;27.02;;
63370;SDS011;49504;48.336;14.472;2023-04-01T21:44:43;34.72;;;26.38;;
63370;SDS011;49504;48.336;14.472;2023-04-01T21:52:29;36.00;;;26.25;;
63370;SDS011;49504;48.336;14.472;2023-04-01T21:56:48;34.85;;;26.25;;
63370;SDS011;49504;48.336;14.472;2023-04-01T22:00:33;31.92;;;25.10;;
63370;SDS011;49504;48.336;14.472;2023-04-01T22:07:51;32.78;;;24.63;;
63370;SDS011;49504;48.336;14.472;2023-04-01T22:11:24;32.45;;;23.42;;
63370;SDS011;49504;48.336;14.472;2023-04-01T22:14:57;32.93;;;24.47;;
63370;SDS011;49504;48.336;14.472;2023-04-01T22:18:33;34.37;;;24.83;;
63370;SDS011;49504;48.336;14.472;2023-04-01T22:22:01;31.02;;;22.15;;
63370;SDS011;49504;48.336;14.472;2023-04-01T22:25:29;31.17;;;23.20;;
63370;SDS011;49504;48.336;14.472;2023-04-01T22:28:58;31.42;;;23.38;;
63370;SDS011;49504;48.336;14.472;2023-04-01T22:32:45;32.30;;;22.77;;
63370;SDS011;49504;48.336;14.472;2023-04-01T22:36:11;29.85;;;21.80;;
63370;SDS011;49504;48.336;14.472;2023-04-01T22:41:46;29.30;;;21.17;;
63370;SDS011;49504;48.336;14.472;2023-04-01T22:49:26;26.90;;;20.93;;
63370;SDS011;49504;48.336;14.472;2023-04-01T22:52:54;26.95;;;19.88;;
63370;SDS011;49504;48.336;14.472;2023-04-01T22:56:27;28.40;;;20.70;;
63370;SDS011;49504;48.336;14.472;2023-04-01T22:59:58;27.50;;;20.05;;
63370;SDS011;49504;48.336;14.472;2023-04-01T23:03:25;26.98;;;20.13;;
63370;SDS011;49504;48.336;14.472;2023-04-01T23:06:52;23.60;;;18.35;;
63370;SDS011;49504;48.336;14.472;2023-04-01T23:10:32;23.58;;;18.23;;
63370;SDS011;49504;48.336;14.472;2023-04-01T23:14:05;23.88;;;18.08;;
63370;SDS011;49504;48.336;14.472;2023-04-01T23:17:53;22.38;;;17.30;;
63370;SDS011;49504;48.336;14.472;2023-04-01T23:21:31;22.13;;;17.38;;
63370;SDS011;49504;48.336;14.472;2023-04-01T23:25:01;23.23;;;17.42;;
63370;SDS011;49504;48.336;14.472;2023-04-01T23:28:46;25.20;;;17.83;;
63370;SDS011;49504;48.336;14.472;2023-04-01T23:32:13;22.25;;;16.90;;
63370;SDS011;49504;48.336;14.472;2023-04-01T23:35:39;23.05;;;17.33;;
63370;SDS011;49504;48.336;14.472;2023-04-01T23:39:11;21.73;;;16.02;;
63370;SDS011;49504;48.336;14.472;2023-04-01T23:42:41;22.75;;;16.35;;
63370;SDS011;49504;48.336;14.472;2023-04-01T23:46:05;19.83;;;15.63;;
63370;SDS011;49504;48.336;14.472;2023-04-01T23:49:28;21.27;;;15.90;;
63370;SDS011;49504;48.336;14.472;2023-04-01T23:52:56;19.38;;;14.77;;
63370;SDS011;49504;48.336;14.472;2023-04-01T23:56:22;20.38;;;14.82;;
63370;SDS011;49504;48.336;14.472;2023-04-01T23:59:43;21.48;;;15.45;;
